RJAARJGG

Guest
Details From RJAA - NARITA INTL
To RJGG - CHUBU CENTRAIR INTL
Flight Number -
Tags decoded
Created
Modified
Stats Distance 198 nm / 367 km
Max Altitude 0 ft / 0 m
Waypoints 4
Social Downloads 0
Likes 0
Share VATSIM

Download

Looking for another format? Having issues loading an existing format? Contact us
Advertisement - Login to hide

Notes

Requested: RJAA CHINO Y88 SWING RJGG

Route

RJAA CHINO SWING RJGG

ID Type Via Altitude Latitude Longitude Leg Dist Tot Dist Heading (true) Name
O RJAA APT - 0 ft / 0 m 35.77655˚ 140.38277˚ - 0 nm - NARITA INTL
CHINO FIX - 0 ft / 0 m 35.88430˚ 138.56549˚ 88 nm 88 nm 275° / 274° -
SWING FIX - 0 ft / 0 m 35.38943˚ 137.25819˚ 70 nm 159 nm 245° / 245° -
O RJGG APT - 0 ft / 0 m 34.85841˚ 136.80541˚ 38 nm 197 nm 215° / 215° CHUBU CENTRAIR INTL

Altitude Profile

Advertisement - Login to hide

Weather


0- 5 10 15 20 25 30 35+ Temperature / ° C

Clouds and Precipitation
Forecast for 2018-05-20 18:00 UTC. Updated 4 hours ago

Ground ~20,000 ft ~40,000 ft Winds

RJAA

Details ICAO RJAA (NRT)
Name NARITA INTL
Region Japan
Timezone Asia/Tokyo (UTC+9.0)
Stats Elevation 141 ft / 43 m (AMSL)
Location 35.776552° 140.382770°
Runways 2
Magnetic Variation 7.430° W

METAR

RJAA 202130Z VRB01KT 9999 FEW030 BKN/// 12/09 Q1020 NOSIG RMK 1CU030 A3013

Decode

TAF

TAF RJAA 201705Z 2018/2200 36005KT 9999 FEW030 BECMG 2103/2105 14005KT

Decode

Departure Runways

ID Width Length Bearing (true) Bearing (mag) Surface Threshold Offset Overrun Length
16L 196 ft / 60 m 7,162 ft / 2,183 m 149.61° 157.04° Asphalt 190 ft / 58 m 0 ft / 0 m
16R 196 ft / 60 m 13,142 ft / 4,006 m 149.61° 157.04° Asphalt 0 ft / 0 m 410 ft / 125 m
34L 196 ft / 60 m 13,142 ft / 4,006 m 329.62° 337.05° Asphalt 0 ft / 0 m 415 ft / 126 m
34R 196 ft / 60 m 7,162 ft / 2,183 m 329.62° 337.05° Asphalt 190 ft / 58 m 0 ft / 0 m

RJGG

Details ICAO RJGG (NGO)
Name CHUBU CENTRAIR INTL
Region Japan
Timezone Asia/Tokyo (UTC+9.0)
Stats Elevation 15 ft / 5 m (AMSL)
Location 34.858414° 136.805408°
Runways 1
Magnetic Variation 7.609° W

METAR

RJGG 202100Z 06004KT 9999 FEW015 SCT180 BKN/// 16/13 Q1020 NOSIG

Decode

TAF

TAF RJGG 201706Z 2018/2200 34005KT 9999 FEW020 BECMG 2101/2103 20006KT BECMG 2115/2118 04005KT BECMG 2121/2200 12010KT

Decode

Destination Runways

ID Width Length Bearing (true) Bearing (mag) Surface Threshold Offset Overrun Length
18 197 ft / 60 m 11,511 ft / 3,509 m 168.81° 176.42° Asphalt 0 ft / 0 m 197 ft / 60 m
36 197 ft / 60 m 11,511 ft / 3,509 m 348.81° 356.42° Asphalt 0 ft / 0 m 197 ft / 60 m

Approach Navaids

Runway Type Ident Frequency Range Bearing (true) Bearing (mag) Slope Elevation
18 Localiser ICY 109.70 MHz 25 nm / 46 km 168.79° 176.40° - 12 ft / 4 m (AMSL)
18 Glidescope ICY 109.70 MHz 25 nm / 46 km 176.00° 183.61° 3.00° 12 ft / 4 m (AMSL)
36 Localiser ICX 111.90 MHz 25 nm / 46 km 348.79° 356.40° - 12 ft / 4 m (AMSL)
36 Glidescope ICX 111.90 MHz 25 nm / 46 km 356.00° 3.61° 3.00° 12 ft / 4 m (AMSL)

Popular Alternatives